Time;durP1;ratioP1;P1;durP2;ratioP2;P2;SDS_P1;SDS_P2;PMS_P1;PMS_P2;Temp;Humidity;BMP_temperature;BMP_pressure;BME280_temperature;BME280_humidity;BME280_pressure;Samples;Min_cycle;Max_cycle;Signal;HPM_P1;HPM_P2
2024/01/31 00:00:08;;;;;;;15.82;5.65;;;;;;;;;;5033777;28;20108;-61
2024/01/31 00:02:34;;;;;;;20.00;5.88;;;;;;;;;;5034873;28;20040;-61
2024/01/31 00:05:00;;;;;;;19.48;6.20;;;;;;;;;;5047544;28;20037;-61
2024/01/31 00:07:25;;;;;;;16.23;5.00;;;;;;;;;;5053252;28;20035;-61
2024/01/31 00:09:50;;;;;;;16.50;5.55;;;;;;;;;;5044228;28;20034;-61
2024/01/31 00:12:16;;;;;;;16.50;5.20;;;;;;;;;;5033350;28;20041;-61
2024/01/31 00:14:44;;;;;;;17.13;5.38;;;;;;;;;;5054141;28;20033;-61
2024/01/31 00:17:09;;;;;;;18.60;5.57;;;;;;;;;;5053562;28;20041;-61
2024/01/31 00:19:35;;;;;;;14.20;5.57;;;;;;;;;;5053996;28;20082;-61
2024/01/31 00:22:00;;;;;;;19.33;5.93;;;;;;;;;;5052961;28;20112;-61
2024/01/31 00:24:26;;;;;;;20.52;6.18;;;;;;;;;;5036475;28;20046;-61
2024/01/31 00:26:52;;;;;;;16.58;5.43;;;;;;;;;;5033927;28;20033;-61
2024/01/31 00:29:17;;;;;;;15.60;5.63;;;;;;;;;;5032082;28;20041;-61
2024/01/31 00:31:42;;;;;;;14.00;5.38;;;;;;;;;;5033841;28;20021;-61
2024/01/31 00:34:08;;;;;;;18.83;5.53;;;;;;;;;;5033074;28;20065;-61
2024/01/31 00:36:33;;;;;;;16.95;5.13;;;;;;;;;;5035253;28;20095;-61
2024/01/31 00:38:59;;;;;;;14.45;5.68;;;;;;;;;;5053149;28;20048;-61
2024/01/31 00:41:25;;;;;;;13.45;5.15;;;;;;;;;;5053966;28;20031;-61
2024/01/31 00:43:51;;;;;;;16.75;5.68;;;;;;;;;;5052684;28;20109;-61
2024/01/31 00:46:16;;;;;;;16.15;5.30;;;;;;;;;;5052917;28;20176;-61
2024/01/31 00:48:43;;;;;;;17.75;5.03;;;;;;;;;;5052649;28;20056;-61
2024/01/31 00:51:11;;;;;;;15.60;5.00;;;;;;;;;;5052812;28;20087;-61
2024/01/31 00:53:38;;;;;;;12.85;5.00;;;;;;;;;;5053559;28;20466;-60
2024/01/31 00:56:04;;;;;;;14.93;4.95;;;;;;;;;;5046010;28;20033;-60
2024/01/31 00:58:29;;;;;;;14.32;4.55;;;;;;;;;;5033732;28;20037;-60
2024/01/31 01:00:54;;;;;;;16.80;5.45;;;;;;;;;;5032312;28;20036;-60
2024/01/31 01:03:20;;;;;;;14.48;4.88;;;;;;;;;;5031639;28;20413;-59
2024/01/31 01:05:45;;;;;;;15.43;4.93;;;;;;;;;;5033560;28;20457;-60
2024/01/31 01:08:11;;;;;;;20.30;5.00;;;;;;;;;;5032665;28;20031;-60
2024/01/31 01:10:36;;;;;;;16.73;5.18;;;;;;;;;;5033319;28;20378;-60
2024/01/31 01:13:02;;;;;;;14.98;5.22;;;;;;;;;;5032329;28;20526;-60
2024/01/31 01:15:27;;;;;;;14.20;4.72;;;;;;;;;;5033350;28;20105;-60
2024/01/31 01:17:53;;;;;;;14.63;5.03;;;;;;;;;;5033255;28;20029;-60
2024/01/31 01:20:18;;;;;;;16.30;5.13;;;;;;;;;;5032448;28;20029;-60
2024/01/31 01:22:45;;;;;;;16.73;5.18;;;;;;;;;;5032868;28;20049;-60
2024/01/31 01:25:10;;;;;;;15.73;5.57;;;;;;;;;;5032322;28;20029;-60
2024/01/31 01:27:36;;;;;;;14.55;5.25;;;;;;;;;;5032989;28;20393;-60
2024/01/31 01:30:02;;;;;;;14.80;5.55;;;;;;;;;;5032158;28;20048;-60
2024/01/31 01:32:27;;;;;;;15.20;6.05;;;;;;;;;;5036724;28;20044;-60
2024/01/31 01:34:52;;;;;;;15.63;5.28;;;;;;;;;;5052742;28;20029;-60
2024/01/31 01:37:18;;;;;;;15.52;5.88;;;;;;;;;;5051804;28;20705;-60
2024/01/31 01:39:45;;;;;;;15.45;5.80;;;;;;;;;;5052759;28;20032;-60
2024/01/31 01:42:11;;;;;;;17.02;6.03;;;;;;;;;;5050217;28;20107;-60
2024/01/31 01:44:42;;;;;;;19.08;6.30;;;;;;;;;;5052489;28;20040;-60
2024/01/31 01:47:08;;;;;;;17.10;5.82;;;;;;;;;;5051628;28;20419;-60
2024/01/31 01:49:36;;;;;;;17.60;5.65;;;;;;;;;;5052431;28;20029;-60
2024/01/31 01:52:02;;;;;;;16.85;6.00;;;;;;;;;;5051694;28;20103;-60
2024/01/31 01:54:28;;;;;;;18.73;6.03;;;;;;;;;;5052347;28;20042;-60
2024/01/31 01:56:53;;;;;;;19.63;6.22;;;;;;;;;;5037030;28;20451;-60
2024/01/31 01:59:19;;;;;;;15.60;6.10;;;;;;;;;;5030430;28;20299;-63
2024/01/31 02:01:46;;;;;;;14.75;5.60;;;;;;;;;;5032476;28;20458;-60
2024/01/31 02:04:12;;;;;;;15.57;6.30;;;;;;;;;;5031665;28;20033;-60
2024/01/31 02:06:38;;;;;;;11.52;5.75;;;;;;;;;;5032460;28;20108;-60
2024/01/31 02:09:03;;;;;;;16.65;5.50;;;;;;;;;;5049810;28;20120;-61
2024/01/31 02:11:30;;;;;;;11.15;4.32;;;;;;;;;;5051875;28;20473;-61
2024/01/31 02:13:56;;;;;;;11.98;4.20;;;;;;;;;;5052229;28;20039;-60
2024/01/31 02:16:22;;;;;;;13.30;3.78;;;;;;;;;;5051350;28;20033;-60
2024/01/31 02:18:47;;;;;;;9.85;3.38;;;;;;;;;;5051854;28;20036;-61
2024/01/31 02:21:15;;;;;;;9.35;3.35;;;;;;;;;;5051170;28;20124;-61
2024/01/31 02:23:41;;;;;;;9.20;3.65;;;;;;;;;;5042801;28;20060;-61
2024/01/31 02:26:06;;;;;;;8.07;3.38;;;;;;;;;;5031123;28;20382;-61
2024/01/31 02:28:32;;;;;;;8.95;3.17;;;;;;;;;;5031833;28;20029;-61
2024/01/31 02:30:57;;;;;;;5.80;2.60;;;;;;;;;;5032173;28;20538;-61
2024/01/31 02:33:22;;;;;;;5.32;2.67;;;;;;;;;;5029896;28;20021;-62
2024/01/31 02:35:48;;;;;;;11.18;2.70;;;;;;;;;;5031000;28;20037;-61
2024/01/31 02:38:13;;;;;;;6.38;2.25;;;;;;;;;;5049804;28;20424;-62
2024/01/31 02:40:38;;;;;;;7.30;2.88;;;;;;;;;;5041148;28;20041;-61
2024/01/31 02:43:04;;;;;;;6.63;2.88;;;;;;;;;;5046939;28;20029;-61
2024/01/31 02:45:29;;;;;;;5.30;2.38;;;;;;;;;;5050014;28;20032;-61
2024/01/31 02:47:55;;;;;;;8.98;2.70;;;;;;;;;;5033467;28;20047;-61
2024/01/31 02:50:20;;;;;;;8.02;3.03;;;;;;;;;;5034346;28;20541;-60
2024/01/31 02:52:45;;;;;;;5.97;2.70;;;;;;;;;;5034002;28;20513;-60
2024/01/31 02:55:11;;;;;;;6.93;2.85;;;;;;;;;;5031817;28;20067;-60
2024/01/31 02:57:37;;;;;;;8.35;2.70;;;;;;;;;;5039067;28;20394;-61
2024/01/31 03:00:04;;;;;;;7.38;3.20;;;;;;;;;;5051614;28;20029;-60
2024/01/31 03:02:29;;;;;;;11.75;3.40;;;;;;;;;;5051405;28;20041;-60
2024/01/31 03:04:55;;;;;;;5.63;2.65;;;;;;;;;;5051320;28;20052;-61
2024/01/31 03:07:20;;;;;;;11.93;3.17;;;;;;;;;;5050781;28;20379;-60
2024/01/31 03:09:46;;;;;;;8.55;3.33;;;;;;;;;;5051440;28;20033;-60
2024/01/31 03:12:11;;;;;;;8.50;3.08;;;;;;;;;;5052151;28;20106;-60
2024/01/31 03:14:36;;;;;;;9.85;3.13;;;;;;;;;;5055943;28;20374;-62
2024/01/31 03:17:02;;;;;;;7.30;3.25;;;;;;;;;;5055594;28;20202;-62
2024/01/31 03:19:29;;;;;;;8.65;3.58;;;;;;;;;;5054507;28;20087;-60
2024/01/31 03:21:55;;;;;;;7.18;3.22;;;;;;;;;;5055153;28;20033;-61
2024/01/31 03:24:23;;;;;;;8.27;3.08;;;;;;;;;;5053721;28;20068;-63
2024/01/31 03:26:49;;;;;;;10.02;3.70;;;;;;;;;;5035547;28;20040;-61
2024/01/31 03:29:15;;;;;;;10.00;2.88;;;;;;;;;;5034563;28;20104;-61
2024/01/31 03:31:40;;;;;;;7.55;3.10;;;;;;;;;;5035281;28;20034;-61
2024/01/31 03:34:06;;;;;;;8.70;3.10;;;;;;;;;;5034993;28;20026;-61
2024/01/31 03:36:32;;;;;;;8.07;2.78;;;;;;;;;;5034658;28;20044;-62
2024/01/31 03:38:59;;;;;;;9.05;2.92;;;;;;;;;;5035358;28;20083;-61
2024/01/31 03:41:28;;;;;;;6.53;2.60;;;;;;;;;;5037608;28;20876;-61
2024/01/31 03:43:54;;;;;;;7.45;2.17;;;;;;;;;;5054512;28;20036;-61
2024/01/31 03:46:20;;;;;;;7.40;2.92;;;;;;;;;;5041005;28;20048;-61
2024/01/31 03:48:46;;;;;;;3.85;2.40;;;;;;;;;;5035067;28;20034;-60
2024/01/31 03:51:21;;;;;;;5.78;2.63;;;;;;;;;;5034215;28;20470;-60
2024/01/31 03:53:48;;;;;;;6.75;2.45;;;;;;;;;;5035087;28;20030;-61
2024/01/31 03:56:14;;;;;;;10.70;2.60;;;;;;;;;;5034009;28;20038;-60
2024/01/31 03:58:39;;;;;;;6.60;2.83;;;;;;;;;;5034555;28;20037;-60
2024/01/31 04:01:06;;;;;;;5.63;2.22;;;;;;;;;;5044216;28;20063;-61
2024/01/31 04:03:31;;;;;;;7.70;2.20;;;;;;;;;;5048800;28;20032;-60
2024/01/31 04:05:57;;;;;;;4.50;2.30;;;;;;;;;;5054652;28;20037;-60
2024/01/31 04:08:22;;;;;;;6.13;2.10;;;;;;;;;;5053461;28;20040;-60
2024/01/31 04:10:47;;;;;;;6.60;2.15;;;;;;;;;;5054890;28;20068;-60
2024/01/31 04:13:13;;;;;;;4.10;2.05;;;;;;;;;;5051098;28;20029;-60
2024/01/31 04:15:38;;;;;;;5.57;2.28;;;;;;;;;;5038406;28;20484;-61
2024/01/31 04:18:04;;;;;;;3.00;1.88;;;;;;;;;;5042664;28;20117;-61
2024/01/31 04:20:30;;;;;;;5.22;1.80;;;;;;;;;;5053430;28;20050;-61
2024/01/31 04:22:55;;;;;;;6.28;2.20;;;;;;;;;;5053566;28;20132;-61
2024/01/31 04:25:21;;;;;;;4.07;1.83;;;;;;;;;;5034424;28;20140;-62
2024/01/31 04:27:46;;;;;;;3.40;1.67;;;;;;;;;;5037790;28;20036;-62
2024/01/31 04:30:12;;;;;;;3.33;1.90;;;;;;;;;;5033761;28;20084;-61
2024/01/31 04:32:38;;;;;;;7.85;2.10;;;;;;;;;;5034281;28;20087;-61
2024/01/31 04:35:07;;;;;;;3.85;1.73;;;;;;;;;;5051750;28;20043;-61
2024/01/31 04:37:32;;;;;;;4.43;1.77;;;;;;;;;;5053348;28;20079;-61
2024/01/31 04:39:58;;;;;;;4.15;1.85;;;;;;;;;;5036580;28;20057;-61
2024/01/31 04:42:23;;;;;;;5.45;1.73;;;;;;;;;;5033301;28;20040;-61
2024/01/31 04:44:48;;;;;;;3.47;2.05;;;;;;;;;;5033497;28;20029;-62
2024/01/31 04:47:14;;;;;;;3.92;1.63;;;;;;;;;;5033109;28;20030;-61
2024/01/31 04:49:39;;;;;;;7.75;1.80;;;;;;;;;;5034127;28;20038;-62
2024/01/31 04:52:05;;;;;;;3.80;1.55;;;;;;;;;;5033813;28;20026;-62
2024/01/31 04:54:30;;;;;;;4.18;1.63;;;;;;;;;;5032913;28;20024;-61
2024/01/31 04:56:56;;;;;;;3.58;1.30;;;;;;;;;;5033657;28;20220;-61
2024/01/31 04:59:21;;;;;;;3.58;1.50;;;;;;;;;;5032628;28;20045;-61
2024/01/31 05:01:46;;;;;;;3.03;1.50;;;;;;;;;;5033700;28;20374;-62
2024/01/31 05:04:12;;;;;;;4.15;1.85;;;;;;;;;;5033207;28;20029;-61
2024/01/31 05:06:37;;;;;;;5.18;1.90;;;;;;;;;;5033451;28;20025;-61
2024/01/31 05:09:03;;;;;;;5.97;2.10;;;;;;;;;;5032459;28;20028;-62
2024/01/31 05:11:28;;;;;;;2.97;1.63;;;;;;;;;;5032646;28;20037;-61
2024/01/31 05:13:54;;;;;;;6.07;1.75;;;;;;;;;;5033521;28;20375;-61
2024/01/31 05:16:19;;;;;;;3.85;2.20;;;;;;;;;;5032476;28;20045;-62
2024/01/31 05:18:44;;;;;;;3.40;1.83;;;;;;;;;;5033222;28;20041;-61
2024/01/31 05:21:10;;;;;;;4.53;2.00;;;;;;;;;;5033429;28;20112;-62
2024/01/31 05:23:37;;;;;;;4.72;1.98;;;;;;;;;;5032627;28;20474;-62
2024/01/31 05:26:08;;;;;;;6.78;2.22;;;;;;;;;;5033426;28;20029;-62
2024/01/31 05:28:35;;;;;;;4.00;1.80;;;;;;;;;;5032430;28;20108;-60
2024/01/31 05:31:00;;;;;;;6.72;2.17;;;;;;;;;;5033294;28;20067;-61
2024/01/31 05:33:25;;;;;;;4.53;2.05;;;;;;;;;;5032242;28;20427;-62
2024/01/31 05:35:51;;;;;;;6.57;2.13;;;;;;;;;;5032157;28;20045;-63
2024/01/31 05:38:16;;;;;;;4.18;2.10;;;;;;;;;;5030959;28;20079;-62
2024/01/31 05:40:44;;;;;;;4.50;1.70;;;;;;;;;;5032930;28;20026;-62
2024/01/31 05:43:09;;;;;;;4.10;1.80;;;;;;;;;;5032760;28;20033;-62
2024/01/31 05:45:35;;;;;;;3.80;1.98;;;;;;;;;;5031623;28;20026;-62
2024/01/31 05:48:02;;;;;;;5.68;2.30;;;;;;;;;;5032812;28;20104;-61
2024/01/31 05:50:28;;;;;;;6.10;3.00;;;;;;;;;;5031529;28;20390;-62
2024/01/31 05:52:53;;;;;;;3.88;2.30;;;;;;;;;;5032540;28;20029;-61
2024/01/31 05:55:18;;;;;;;5.25;2.67;;;;;;;;;;5031919;28;20036;-61
2024/01/31 05:57:48;;;;;;;8.18;4.32;;;;;;;;;;5031541;28;20455;-62
2024/01/31 06:00:14;;;;;;;5.88;3.28;;;;;;;;;;5031989;28;20112;-62
2024/01/31 06:02:39;;;;;;;15.20;5.85;;;;;;;;;;5030737;28;20116;-61
2024/01/31 06:05:05;;;;;;;12.55;3.97;;;;;;;;;;5032364;28;20033;-61
2024/01/31 06:07:31;;;;;;;6.07;3.42;;;;;;;;;;5031673;28;20033;-61
2024/01/31 06:09:56;;;;;;;6.40;3.40;;;;;;;;;;5031362;28;20553;-61
2024/01/31 06:12:21;;;;;;;5.32;2.50;;;;;;;;;;5031751;28;20029;-61
2024/01/31 06:14:47;;;;;;;4.65;2.40;;;;;;;;;;5031106;28;20485;-61
2024/01/31 06:17:14;;;;;;;4.68;2.38;;;;;;;;;;5032523;28;20124;-61
2024/01/31 06:19:39;;;;;;;5.53;2.30;;;;;;;;;;5043215;28;20044;-61
2024/01/31 06:22:05;;;;;;;5.13;2.65;;;;;;;;;;5052169;28;20036;-61
2024/01/31 06:24:30;;;;;;;6.68;2.33;;;;;;;;;;5050849;28;20051;-61
2024/01/31 06:26:56;;;;;;;4.10;1.90;;;;;;;;;;5052180;28;20429;-61
2024/01/31 06:29:21;;;;;;;4.57;2.30;;;;;;;;;;5051214;28;20056;-60
2024/01/31 06:31:47;;;;;;;5.05;2.40;;;;;;;;;;5052042;28;20108;-60
2024/01/31 06:34:14;;;;;;;4.13;2.35;;;;;;;;;;5047197;28;20074;-62
2024/01/31 06:36:39;;;;;;;4.22;2.53;;;;;;;;;;5051004;28;20090;-60
2024/01/31 06:39:05;;;;;;;5.55;2.22;;;;;;;;;;5050808;28;20405;-61
2024/01/31 06:41:31;;;;;;;5.35;2.35;;;;;;;;;;5051101;28;20075;-62
2024/01/31 06:43:57;;;;;;;5.90;2.25;;;;;;;;;;5051692;28;20033;-61
2024/01/31 06:46:22;;;;;;;4.65;2.50;;;;;;;;;;5050002;28;20036;-61
2024/01/31 06:48:48;;;;;;;6.13;2.30;;;;;;;;;;5043094;28;20474;-61
2024/01/31 06:51:13;;;;;;;4.65;2.22;;;;;;;;;;5032039;28;20112;-60
2024/01/31 06:53:38;;;;;;;5.03;2.00;;;;;;;;;;5030992;28;20780;-61
2024/01/31 06:56:04;;;;;;;4.40;2.47;;;;;;;;;;5031918;28;20483;-61
2024/01/31 06:58:31;;;;;;;5.80;2.20;;;;;;;;;;5031330;28;20041;-61
2024/01/31 07:00:59;;;;;;;5.45;2.50;;;;;;;;;;5031985;28;20525;-61
2024/01/31 07:03:25;;;;;;;6.15;2.28;;;;;;;;;;5050094;28;20041;-61
2024/01/31 07:05:50;;;;;;;4.95;2.42;;;;;;;;;;5031589;28;20030;-62
2024/01/31 07:08:16;;;;;;;6.38;2.63;;;;;;;;;;5031822;28;20022;-61
2024/01/31 07:10:41;;;;;;;5.25;2.15;;;;;;;;;;5029788;28;20064;-64
2024/01/31 07:13:06;;;;;;;5.68;2.50;;;;;;;;;;5031687;28;20032;-61
2024/01/31 07:15:32;;;;;;;8.55;4.07;;;;;;;;;;5030892;28;20047;-60
2024/01/31 07:17:57;;;;;;;8.73;3.65;;;;;;;;;;5037314;28;20037;-61
2024/01/31 07:20:22;;;;;;;11.85;4.07;;;;;;;;;;5051454;28;20462;-60
2024/01/31 07:22:48;;;;;;;11.32;5.15;;;;;;;;;;5051879;28;20095;-61
2024/01/31 07:25:15;;;;;;;11.13;3.30;;;;;;;;;;5051226;28;20557;-61
2024/01/31 07:27:41;;;;;;;8.15;3.58;;;;;;;;;;5049503;28;20104;-67
2024/01/31 07:30:10;;;;;;;8.30;3.80;;;;;;;;;;5050243;28;20071;-60
2024/01/31 07:32:36;;;;;;;9.18;4.13;;;;;;;;;;5043398;28;20022;-62
2024/01/31 07:35:03;;;;;;;6.50;3.20;;;;;;;;;;5031243;28;20033;-62
2024/01/31 07:37:28;;;;;;;8.98;4.53;;;;;;;;;;5030717;28;20037;-61
2024/01/31 07:39:56;;;;;;;8.18;3.78;;;;;;;;;;5030321;28;20382;-62
2024/01/31 07:42:22;;;;;;;6.07;3.65;;;;;;;;;;5030651;28;20491;-61
2024/01/31 07:44:47;;;;;;;7.82;3.97;;;;;;;;;;5029949;28;20113;-61
2024/01/31 07:47:13;;;;;;;9.38;4.20;;;;;;;;;;5031003;28;20036;-61
2024/01/31 07:49:41;;;;;;;8.23;3.80;;;;;;;;;;5030676;28;20029;-69
2024/01/31 07:52:06;;;;;;;12.55;4.72;;;;;;;;;;5031404;28;20038;-62
2024/01/31 07:54:31;;;;;;;9.18;4.60;;;;;;;;;;5030510;28;20041;-62
2024/01/31 07:56:57;;;;;;;7.30;4.10;;;;;;;;;;5031498;28;20056;-63
2024/01/31 07:59:22;;;;;;;7.97;4.70;;;;;;;;;;5033868;28;20029;-62
2024/01/31 08:01:47;;;;;;;9.65;4.82;;;;;;;;;;5034517;28;20069;-62
2024/01/31 08:04:13;;;;;;;10.55;4.50;;;;;;;;;;5034821;28;20033;-62
2024/01/31 08:06:42;;;;;;;7.55;4.13;;;;;;;;;;5034016;28;20029;-61
2024/01/31 08:09:07;;;;;;;9.65;4.43;;;;;;;;;;5034817;28;20040;-61
2024/01/31 08:11:33;;;;;;;10.52;5.00;;;;;;;;;;5033892;28;20386;-62
2024/01/31 08:13:58;;;;;;;9.18;5.55;;;;;;;;;;5034572;28;20386;-61
2024/01/31 08:16:23;;;;;;;12.25;5.05;;;;;;;;;;5033502;28;20033;-62
2024/01/31 08:18:49;;;;;;;14.15;5.90;;;;;;;;;;5040592;28;20557;-63
2024/01/31 08:21:14;;;;;;;11.13;5.65;;;;;;;;;;5034666;28;20067;-63
2024/01/31 08:23:40;;;;;;;15.38;5.75;;;;;;;;;;5033419;28;20056;-62
2024/01/31 08:26:06;;;;;;;12.65;5.65;;;;;;;;;;5034556;28;20025;-60
2024/01/31 08:28:31;;;;;;;10.48;5.80;;;;;;;;;;5033509;28;20029;-63
2024/01/31 08:30:56;;;;;;;12.15;5.88;;;;;;;;;;5034217;28;20032;-62
2024/01/31 08:33:22;;;;;;;12.20;5.72;;;;;;;;;;5032709;28;20052;-62
2024/01/31 08:35:47;;;;;;;13.68;6.20;;;;;;;;;;5041505;28;20048;-61
2024/01/31 08:38:13;;;;;;;11.07;5.63;;;;;;;;;;5041785;28;20041;-62
2024/01/31 08:40:39;;;;;;;14.68;6.05;;;;;;;;;;5033224;28;20481;-61
2024/01/31 08:43:04;;;;;;;14.20;7.20;;;;;;;;;;5034159;28;20033;-62
2024/01/31 08:45:29;;;;;;;11.55;6.38;;;;;;;;;;5033231;28;20113;-62
2024/01/31 08:47:55;;;;;;;11.05;5.82;;;;;;;;;;5032944;28;20038;-62
2024/01/31 08:50:20;;;;;;;12.68;6.03;;;;;;;;;;5034428;28;20476;-62
2024/01/31 08:52:45;;;;;;;12.48;5.60;;;;;;;;;;5032806;28;20107;-62
2024/01/31 08:55:13;;;;;;;11.98;6.25;;;;;;;;;;5033865;28;20026;-63
2024/01/31 08:57:38;;;;;;;15.75;6.03;;;;;;;;;;5033127;28;20029;-63
2024/01/31 09:00:05;;;;;;;11.40;5.93;;;;;;;;;;5033831;28;20473;-62
2024/01/31 09:02:30;;;;;;;12.13;6.38;;;;;;;;;;5032934;28;20033;-64
2024/01/31 09:04:55;;;;;;;13.43;6.60;;;;;;;;;;5034001;28;20026;-63
2024/01/31 09:07:21;;;;;;;15.68;6.43;;;;;;;;;;5033627;28;20488;-64
2024/01/31 09:09:46;;;;;;;14.15;6.32;;;;;;;;;;5032221;28;20163;-63
2024/01/31 09:12:12;;;;;;;15.27;6.82;;;;;;;;;;5033716;28;20033;-63
2024/01/31 09:14:38;;;;;;;15.68;6.20;;;;;;;;;;5031402;28;20025;-62
2024/01/31 09:17:05;;;;;;;21.20;9.30;;;;;;;;;;5033450;28;20378;-62
2024/01/31 09:19:30;;;;;;;17.35;6.95;;;;;;;;;;5032983;28;20104;-62
2024/01/31 09:21:55;;;;;;;13.50;7.30;;;;;;;;;;5051444;28;20115;-63
2024/01/31 09:24:21;;;;;;;18.70;10.00;;;;;;;;;;5052884;28;20409;-63
2024/01/31 09:26:46;;;;;;;13.07;6.93;;;;;;;;;;5052267;28;20110;-62
2024/01/31 09:29:12;;;;;;;13.27;6.32;;;;;;;;;;5053270;28;20029;-62
2024/01/31 09:31:37;;;;;;;12.27;6.38;;;;;;;;;;5048682;28;20425;-63
2024/01/31 09:34:03;;;;;;;16.67;7.03;;;;;;;;;;5052082;28;20069;-63
2024/01/31 09:36:28;;;;;;;12.25;6.28;;;;;;;;;;5052553;28;20032;-62
2024/01/31 09:38:55;;;;;;;11.10;5.70;;;;;;;;;;5052519;28;20122;-62
2024/01/31 09:41:20;;;;;;;15.35;6.90;;;;;;;;;;5051820;28;20044;-63
2024/01/31 09:43:47;;;;;;;16.67;6.72;;;;;;;;;;5052154;28;20659;-63
2024/01/31 09:46:13;;;;;;;11.25;5.85;;;;;;;;;;5051988;28;20040;-63
2024/01/31 09:48:39;;;;;;;11.63;5.80;;;;;;;;;;5051903;28;20044;-63
2024/01/31 09:51:06;;;;;;;11.60;5.68;;;;;;;;;;5052852;28;20029;-63
2024/01/31 09:53:36;;;;;;;10.40;5.63;;;;;;;;;;5051943;28;20029;-63
2024/01/31 09:56:02;;;;;;;10.20;5.25;;;;;;;;;;5052494;28;20037;-63
2024/01/31 09:58:28;;;;;;;10.07;4.95;;;;;;;;;;5052138;28;20037;-62
2024/01/31 10:00:54;;;;;;;10.60;5.57;;;;;;;;;;5051221;28;20386;-63
2024/01/31 10:03:19;;;;;;;10.23;5.40;;;;;;;;;;5041033;28;20044;-64
2024/01/31 10:05:44;;;;;;;11.88;4.90;;;;;;;;;;5051236;28;20059;-62
2024/01/31 10:08:10;;;;;;;9.90;4.75;;;;;;;;;;5052385;28;20104;-63
2024/01/31 10:10:39;;;;;;;10.18;4.63;;;;;;;;;;5051521;28;20032;-62
2024/01/31 10:13:08;;;;;;;9.52;5.35;;;;;;;;;;5052350;28;20533;-63
2024/01/31 10:15:33;;;;;;;8.40;4.85;;;;;;;;;;5051483;28;20032;-63
2024/01/31 10:17:58;;;;;;;12.48;4.50;;;;;;;;;;5042082;28;20079;-63
2024/01/31 10:20:25;;;;;;;10.15;4.45;;;;;;;;;;5032315;28;20393;-63
2024/01/31 10:22:50;;;;;;;10.27;4.63;;;;;;;;;;5030455;28;20124;-63
2024/01/31 10:25:18;;;;;;;10.85;5.47;;;;;;;;;;5032470;28;20111;-63
2024/01/31 10:27:47;;;;;;;8.52;4.70;;;;;;;;;;5031269;28;20025;-63
2024/01/31 10:30:13;;;;;;;9.75;5.10;;;;;;;;;;5032315;28;20049;-63
2024/01/31 10:32:40;;;;;;;8.05;4.88;;;;;;;;;;5031341;28;20029;-63
2024/01/31 10:35:06;;;;;;;13.93;5.28;;;;;;;;;;5032124;28;20525;-63
2024/01/31 10:37:32;;;;;;;9.82;5.10;;;;;;;;;;5031703;28;20474;-62
2024/01/31 10:39:59;;;;;;;11.85;5.32;;;;;;;;;;5031920;28;20091;-63
2024/01/31 10:42:26;;;;;;;11.35;5.60;;;;;;;;;;5031996;28;20026;-63
2024/01/31 10:44:52;;;;;;;20.33;6.25;;;;;;;;;;5031045;28;20131;-62
2024/01/31 10:47:18;;;;;;;12.48;7.13;;;;;;;;;;5038694;28;20029;-63
2024/01/31 10:49:43;;;;;;;13.13;6.22;;;;;;;;;;5047298;28;20075;-62
2024/01/31 10:52:12;;;;;;;14.05;6.38;;;;;;;;;;5030665;28;20393;-63
2024/01/31 10:54:43;;;;;;;11.63;5.63;;;;;;;;;;5030922;28;20029;-62
2024/01/31 10:57:09;;;;;;;13.48;6.53;;;;;;;;;;5031944;28;20068;-64
2024/01/31 10:59:38;;;;;;;14.98;6.68;;;;;;;;;;5030995;28;20033;-64
2024/01/31 11:02:04;;;;;;;18.75;7.15;;;;;;;;;;5031952;28;20455;-63
2024/01/31 11:04:30;;;;;;;14.73;6.43;;;;;;;;;;5034665;28;20040;-63
2024/01/31 11:07:00;;;;;;;11.73;6.22;;;;;;;;;;5049539;28;20032;-63
2024/01/31 11:09:26;;;;;;;10.98;6.05;;;;;;;;;;5051653;28;20098;-64
2024/01/31 11:12:05;;;;;;;10.70;5.57;;;;;;;;;;5050874;28;20635;-63
2024/01/31 11:14:32;;;;;;;15.23;6.80;;;;;;;;;;5051599;28;20032;-63
2024/01/31 11:17:07;;;;;;;15.13;7.55;;;;;;;;;;5046414;28;20037;-63
2024/01/31 11:19:48;;;;;;;14.43;6.88;;;;;;;;;;5031334;28;20078;-62
2024/01/31 11:22:14;;;;;;;;;;;;;;;;;;5032491;28;20037;-62
2024/01/31 11:24:45;;;;;;;13.77;5.43;;;;;;;;;;5030277;28;20311;-63
2024/01/31 11:27:13;;;;;;;12.52;5.18;;;;;;;;;;5031482;28;20120;-63
2024/01/31 11:29:38;;;;;;;12.40;6.07;;;;;;;;;;5030713;28;20041;-62
2024/01/31 11:32:05;;;;;;;15.07;6.22;;;;;;;;;;5041175;28;20393;-63
2024/01/31 11:34:30;;;;;;;12.73;6.50;;;;;;;;;;5054958;28;20044;-63
2024/01/31 11:36:56;;;;;;;13.82;5.88;;;;;;;;;;5054421;28;20033;-62
2024/01/31 11:39:22;;;;;;;12.20;5.65;;;;;;;;;;5053698;28;20042;-62
2024/01/31 11:41:47;;;;;;;14.20;6.78;;;;;;;;;;5054434;28;20037;-63
2024/01/31 11:44:12;;;;;;;14.75;7.03;;;;;;;;;;5054893;28;20033;-63
2024/01/31 11:46:38;;;;;;;14.52;6.45;;;;;;;;;;5043944;28;20382;-63
2024/01/31 11:49:04;;;;;;;12.02;5.95;;;;;;;;;;5048542;28;20033;-64
2024/01/31 11:51:30;;;;;;;18.38;7.95;;;;;;;;;;5055149;28;20083;-65
2024/01/31 11:53:55;;;;;;;18.67;7.78;;;;;;;;;;5037998;28;20037;-65
2024/01/31 11:56:21;;;;;;;14.13;6.97;;;;;;;;;;5035645;28;20034;-65
2024/01/31 11:58:47;;;;;;;10.45;6.72;;;;;;;;;;5034520;28;20481;-65
2024/01/31 12:01:13;;;;;;;13.07;7.28;;;;;;;;;;5033383;28;20057;-64
2024/01/31 12:03:39;;;;;;;12.27;6.57;;;;;;;;;;5032828;28;20029;-62
2024/01/31 12:06:05;;;;;;;14.98;6.75;;;;;;;;;;5034689;28;20033;-64
2024/01/31 12:08:32;;;;;;;15.73;7.32;;;;;;;;;;5034727;28;20125;-63
2024/01/31 12:10:57;;;;;;;14.27;7.57;;;;;;;;;;5034029;28;20022;-62
2024/01/31 12:13:22;;;;;;;14.52;7.10;;;;;;;;;;5034820;28;20354;-63
2024/01/31 12:15:48;;;;;;;14.13;7.10;;;;;;;;;;5033920;28;20037;-62
2024/01/31 12:18:15;;;;;;;13.35;7.20;;;;;;;;;;5034592;28;20029;-63
2024/01/31 12:20:40;;;;;;;17.17;7.72;;;;;;;;;;5033766;28;20034;-61
2024/01/31 12:23:06;;;;;;;16.70;7.68;;;;;;;;;;5034452;28;20060;-64
2024/01/31 12:25:31;;;;;;;15.20;7.22;;;;;;;;;;5034443;28;20037;-63
2024/01/31 12:27:57;;;;;;;15.55;7.95;;;;;;;;;;5033541;28;20103;-63
2024/01/31 12:30:23;;;;;;;15.95;7.68;;;;;;;;;;5034416;28;20030;-63
2024/01/31 12:32:49;;;;;;;16.13;7.18;;;;;;;;;;5033617;28;20108;-63
2024/01/31 12:35:14;;;;;;;16.08;6.90;;;;;;;;;;5034151;28;20116;-64
2024/01/31 12:37:40;;;;;;;14.25;7.15;;;;;;;;;;5033888;28;20065;-62
2024/01/31 12:40:09;;;;;;;12.13;6.93;;;;;;;;;;5033841;28;20132;-63
2024/01/31 12:42:35;;;;;;;15.88;7.38;;;;;;;;;;5034150;28;20505;-65
2024/01/31 12:45:00;;;;;;;19.73;7.63;;;;;;;;;;5032160;28;20033;-63
2024/01/31 12:47:26;;;;;;;14.73;7.15;;;;;;;;;;5032120;28;20079;-63
2024/01/31 12:49:52;;;;;;;15.27;6.63;;;;;;;;;;5032586;28;20029;-62
2024/01/31 12:52:21;;;;;;;14.88;7.07;;;;;;;;;;5034042;28;20026;-63
2024/01/31 12:54:47;;;;;;;16.38;7.20;;;;;;;;;;5033188;28;20055;-64
2024/01/31 12:57:13;;;;;;;14.45;7.50;;;;;;;;;;5033726;28;20519;-64
2024/01/31 12:59:38;;;;;;;15.55;7.43;;;;;;;;;;5033486;28;20052;-63
2024/01/31 13:02:04;;;;;;;14.88;7.70;;;;;;;;;;5033234;28;20034;-63
2024/01/31 13:04:29;;;;;;;16.63;7.90;;;;;;;;;;5033594;28;20033;-64
2024/01/31 13:06:55;;;;;;;14.85;7.95;;;;;;;;;;5032643;28;20030;-63
2024/01/31 13:09:20;;;;;;;15.50;7.90;;;;;;;;;;5033722;28;20029;-63
2024/01/31 13:11:46;;;;;;;15.13;7.55;;;;;;;;;;5032758;28;20119;-63
2024/01/31 13:14:11;;;;;;;13.43;7.07;;;;;;;;;;5033553;28;20187;-63
2024/01/31 13:16:37;;;;;;;13.32;6.80;;;;;;;;;;5048219;28;20040;-62
2024/01/31 13:19:03;;;;;;;12.32;6.68;;;;;;;;;;5052599;28;20201;-62
2024/01/31 13:21:29;;;;;;;13.20;6.70;;;;;;;;;;5053289;28;20040;-63
2024/01/31 13:23:57;;;;;;;16.23;7.35;;;;;;;;;;5052082;28;20405;-62
2024/01/31 13:26:24;;;;;;;15.15;7.53;;;;;;;;;;5052845;28;20052;-64
2024/01/31 13:28:50;;;;;;;14.85;7.75;;;;;;;;;;5052559;28;20127;-63
2024/01/31 13:31:15;;;;;;;12.73;6.80;;;;;;;;;;5043074;28;20041;-63
2024/01/31 13:33:40;;;;;;;12.38;6.85;;;;;;;;;;5032941;28;20029;-63
2024/01/31 13:36:07;;;;;;;13.00;6.22;;;;;;;;;;5032276;28;20491;-64
2024/01/31 13:38:33;;;;;;;11.75;5.90;;;;;;;;;;5033213;28;20040;-63
2024/01/31 13:40:58;;;;;;;11.60;6.13;;;;;;;;;;5031977;28;20480;-63
2024/01/31 13:43:23;;;;;;;11.73;6.10;;;;;;;;;;5033055;28;20030;-64
2024/01/31 13:45:49;;;;;;;10.52;5.82;;;;;;;;;;5035189;28;20037;-63
2024/01/31 13:48:14;;;;;;;10.82;5.75;;;;;;;;;;5052711;28;20111;-64
2024/01/31 13:50:40;;;;;;;15.25;6.30;;;;;;;;;;5052611;28;20029;-63
2024/01/31 13:53:05;;;;;;;13.88;7.03;;;;;;;;;;5051642;28;20485;-63
2024/01/31 13:55:31;;;;;;;9.45;5.65;;;;;;;;;;5050889;28;20128;-62
2024/01/31 13:57:57;;;;;;;12.82;6.10;;;;;;;;;;5051724;28;20492;-63
2024/01/31 14:00:22;;;;;;;11.15;6.05;;;;;;;;;;5052767;28;20033;-64
2024/01/31 14:02:48;;;;;;;11.40;6.25;;;;;;;;;;5040423;28;20521;-62
2024/01/31 14:05:13;;;;;;;10.75;6.47;;;;;;;;;;5031422;28;20537;-63
2024/01/31 14:07:39;;;;;;;11.68;6.40;;;;;;;;;;5032569;28;20529;-63
2024/01/31 14:10:05;;;;;;;11.48;6.22;;;;;;;;;;5031703;28;20642;-63
2024/01/31 14:12:30;;;;;;;12.40;6.40;;;;;;;;;;5032237;28;20052;-63
2024/01/31 14:14:56;;;;;;;11.52;6.47;;;;;;;;;;5031702;28;20458;-63
2024/01/31 14:17:22;;;;;;;13.35;7.18;;;;;;;;;;5032364;28;20038;-64
2024/01/31 14:19:48;;;;;;;15.35;7.88;;;;;;;;;;5031628;28;20064;-63
2024/01/31 14:22:13;;;;;;;12.73;7.43;;;;;;;;;;5032026;28;20148;-63
2024/01/31 14:24:39;;;;;;;13.18;8.35;;;;;;;;;;5032401;28;20063;-63
2024/01/31 14:27:04;;;;;;;17.75;8.00;;;;;;;;;;5031129;28;20109;-64